Jerez de la Frontera, Spain

12:34 AM CET on December 10, 2016 (GMT +0100)
Jerez | | Change Station

Elev 92 ft 36.75 °N, 6.06 °W | Updated 4 minutes ago

Clear
Clear
54 °F
Feels Like 54 °F
N
1
Wind Variable Wind from Variable

Today
High -- | Low -- °F
--% Chance of Precip.
Yesterday
High -- | Low -- °F
Precip. -- in
Pressure 30.36 in
Visibility 6.2 miles
Clouds
Dew Point 54 °F
Humidity 100%
Rainfall 0.00 in
Snow Depth Not available.
8:26 AM 6:08 PM
Waxing Gibbous, 78% visible
METAR LEJR 092330Z AUTO VRB01KT 9999 NCD 12/12 Q1028
Pressure 30.36 in
Visibility 6.2 miles
Clouds
Dew Point 54 °F
Humidity 100%
Rainfall 0.00 in
Snow Depth Not available.
8:26 AM 6:08 PM
Waxing Gibbous, 78% visible
METAR LEJR 092330Z AUTO VRB01KT 9999 NCD 12/12 Q1028

10-Day Weather Forecast

×

Almanac

Astronomy

Dec. 10, 2016 Rise Set
Actual Time
Civil Twilight
Nautical Twilight
Astronomical Twilight
Moon
Length of Visible Light
Length of Day
Tomorrow will be .
, % of the Moon is Illuminated

Today's Extremes

Country Highs Country Lows

Community

WunderPhotos

Upload Photos

1,956,535 photos uploaded!

WunderBlog® & News

Nearby

Air Quality

  Air Quality AQ Index Pollutant
Not available.

Snow Depth

Station Depth Elevation

Earthquake Activity

City Distance Mag. Time & Date
Minimum magnitude displayed is 2.5.

Coastal Water Temperatures

Place Temperature

Stations

Nearby Weather Stations

Station Location Temp. Windchill Dew Point Humidity Wind Precip. Elev Updated Type